sensor_id;sensor_type;location;lat;lon;timestamp;temperature;humidity
44509;DHT22;30214;52.246;14.408;2023-05-10T00:01:09;10.80;99.90
44509;DHT22;30214;52.246;14.408;2023-05-10T00:03:36;10.70;99.90
44509;DHT22;30214;52.246;14.408;2023-05-10T00:06:03;10.70;99.90
44509;DHT22;30214;52.246;14.408;2023-05-10T00:08:30;10.70;99.90
44509;DHT22;30214;52.246;14.408;2023-05-10T00:10:57;10.70;99.90
44509;DHT22;30214;52.246;14.408;2023-05-10T00:13:28;10.60;99.90
44509;DHT22;30214;52.246;14.408;2023-05-10T00:15:55;10.50;99.90
44509;DHT22;30214;52.246;14.408;2023-05-10T00:18:23;10.60;99.90
44509;DHT22;30214;52.246;14.408;2023-05-10T00:20:50;10.50;99.90
44509;DHT22;30214;52.246;14.408;2023-05-10T00:23:17;10.60;99.90
44509;DHT22;30214;52.246;14.408;2023-05-10T00:25:44;10.50;99.90
44509;DHT22;30214;52.246;14.408;2023-05-10T00:28:11;10.50;99.90
44509;DHT22;30214;52.246;14.408;2023-05-10T00:30:38;10.50;99.90
44509;DHT22;30214;52.246;14.408;2023-05-10T00:33:05;10.50;99.90
44509;DHT22;30214;52.246;14.408;2023-05-10T00:35:34;10.50;99.90
44509;DHT22;30214;52.246;14.408;2023-05-10T00:38:01;10.40;99.90
44509;DHT22;30214;52.246;14.408;2023-05-10T00:40:29;10.30;99.90
44509;DHT22;30214;52.246;14.408;2023-05-10T00:43:00;10.30;99.90
44509;DHT22;30214;52.246;14.408;2023-05-10T00:45:27;10.20;99.90
44509;DHT22;30214;52.246;14.408;2023-05-10T00:47:54;10.20;99.90
44509;DHT22;30214;52.246;14.408;2023-05-10T00:50:21;10.20;99.90
44509;DHT22;30214;52.246;14.408;2023-05-10T00:52:50;10.20;99.90
44509;DHT22;30214;52.246;14.408;2023-05-10T00:55:18;10.00;99.90
44509;DHT22;30214;52.246;14.408;2023-05-10T00:57:45;10.00;99.90
44509;DHT22;30214;52.246;14.408;2023-05-10T01:00:13;9.90;99.90
44509;DHT22;30214;52.246;14.408;2023-05-10T01:02:43;9.90;99.90
44509;DHT22;30214;52.246;14.408;2023-05-10T01:05:11;9.80;99.90
44509;DHT22;30214;52.246;14.408;2023-05-10T01:07:39;9.70;99.90
44509;DHT22;30214;52.246;14.408;2023-05-10T01:10:09;9.70;99.90
44509;DHT22;30214;52.246;14.408;2023-05-10T01:12:39;9.70;99.90
44509;DHT22;30214;52.246;14.408;2023-05-10T01:15:08;9.70;99.90
44509;DHT22;30214;52.246;14.408;2023-05-10T01:17:38;9.60;99.90
44509;DHT22;30214;52.246;14.408;2023-05-10T01:20:08;9.60;99.90
44509;DHT22;30214;52.246;14.408;2023-05-10T01:22:59;9.60;99.90
44509;DHT22;30214;52.246;14.408;2023-05-10T01:26:01;9.50;99.90
44509;DHT22;30214;52.246;14.408;2023-05-10T01:28:56;9.40;99.90
44509;DHT22;30214;52.246;14.408;2023-05-10T01:34:42;9.30;99.90
44509;DHT22;30214;52.246;14.408;2023-05-10T01:37:18;9.30;99.90
44509;DHT22;30214;52.246;14.408;2023-05-10T01:39:55;9.30;99.90
44509;DHT22;30214;52.246;14.408;2023-05-10T01:42:31;9.30;99.90
44509;DHT22;30214;52.246;14.408;2023-05-10T01:45:10;9.30;99.90
44509;DHT22;30214;52.246;14.408;2023-05-10T01:47:44;9.30;99.90
44509;DHT22;30214;52.246;14.408;2023-05-10T01:50:17;9.40;99.90
44509;DHT22;30214;52.246;14.408;2023-05-10T01:52:51;9.30;99.90
44509;DHT22;30214;52.246;14.408;2023-05-10T01:55:24;9.40;99.90
44509;DHT22;30214;52.246;14.408;2023-05-10T01:57:58;9.30;99.90
44509;DHT22;30214;52.246;14.408;2023-05-10T02:00:29;9.40;99.90
44509;DHT22;30214;52.246;14.408;2023-05-10T02:03:00;9.30;99.90
44509;DHT22;30214;52.246;14.408;2023-05-10T02:05:32;9.30;99.90
44509;DHT22;30214;52.246;14.408;2023-05-10T02:08:01;9.30;99.90
44509;DHT22;30214;52.246;14.408;2023-05-10T02:10:29;9.30;99.90
44509;DHT22;30214;52.246;14.408;2023-05-10T02:12:59;9.30;99.90
44509;DHT22;30214;52.246;14.408;2023-05-10T02:15:28;9.30;99.90
44509;DHT22;30214;52.246;14.408;2023-05-10T02:17:59;9.30;99.90
44509;DHT22;30214;52.246;14.408;2023-05-10T02:20:27;9.20;99.90
44509;DHT22;30214;52.246;14.408;2023-05-10T02:22:56;9.20;99.90
44509;DHT22;30214;52.246;14.408;2023-05-10T02:25:25;9.30;99.90
44509;DHT22;30214;52.246;14.408;2023-05-10T02:27:54;9.30;99.90
44509;DHT22;30214;52.246;14.408;2023-05-10T02:30:22;9.30;99.90
44509;DHT22;30214;52.246;14.408;2023-05-10T02:32:51;9.20;99.90
44509;DHT22;30214;52.246;14.408;2023-05-10T02:35:21;9.20;99.90
44509;DHT22;30214;52.246;14.408;2023-05-10T02:37:50;9.10;99.90
44509;DHT22;30214;52.246;14.408;2023-05-10T02:40:18;9.10;99.90
44509;DHT22;30214;52.246;14.408;2023-05-10T02:42:48;9.10;99.90
44509;DHT22;30214;52.246;14.408;2023-05-10T02:45:31;9.10;99.90
44509;DHT22;30214;52.246;14.408;2023-05-10T02:47:58;9.10;99.90
44509;DHT22;30214;52.246;14.408;2023-05-10T02:50:28;9.00;99.90
44509;DHT22;30214;52.246;14.408;2023-05-10T02:53:07;9.00;99.90
44509;DHT22;30214;52.246;14.408;2023-05-10T02:55:38;9.00;99.90
44509;DHT22;30214;52.246;14.408;2023-05-10T02:58:07;9.00;99.90
44509;DHT22;30214;52.246;14.408;2023-05-10T03:00:34;8.90;99.90
44509;DHT22;30214;52.246;14.408;2023-05-10T03:03:02;8.90;99.90
44509;DHT22;30214;52.246;14.408;2023-05-10T03:05:30;8.90;99.90
44509;DHT22;30214;52.246;14.408;2023-05-10T03:08:01;8.80;99.90
44509;DHT22;30214;52.246;14.408;2023-05-10T03:10:30;8.80;99.90
44509;DHT22;30214;52.246;14.408;2023-05-10T03:13:07;8.80;99.90
44509;DHT22;30214;52.246;14.408;2023-05-10T03:15:47;8.80;99.90
44509;DHT22;30214;52.246;14.408;2023-05-10T03:18:22;8.70;99.90
44509;DHT22;30214;52.246;14.408;2023-05-10T03:20:57;8.60;99.90
44509;DHT22;30214;52.246;14.408;2023-05-10T03:23:30;8.60;99.90
44509;DHT22;30214;52.246;14.408;2023-05-10T03:26:01;8.60;99.90
44509;DHT22;30214;52.246;14.408;2023-05-10T03:28:30;8.70;99.90
44509;DHT22;30214;52.246;14.408;2023-05-10T03:30:59;8.70;99.90
44509;DHT22;30214;52.246;14.408;2023-05-10T03:33:27;8.70;99.90
44509;DHT22;30214;52.246;14.408;2023-05-10T03:35:55;8.70;99.90
44509;DHT22;30214;52.246;14.408;2023-05-10T03:38:22;8.70;99.90
44509;DHT22;30214;52.246;14.408;2023-05-10T03:40:50;8.80;99.90
44509;DHT22;30214;52.246;14.408;2023-05-10T03:43:17;9.00;99.90
44509;DHT22;30214;52.246;14.408;2023-05-10T03:45:44;9.10;99.90
44509;DHT22;30214;52.246;14.408;2023-05-10T03:48:11;9.40;99.90
44509;DHT22;30214;52.246;14.408;2023-05-10T03:50:40;9.50;99.90
44509;DHT22;30214;52.246;14.408;2023-05-10T03:53:09;9.40;99.90
44509;DHT22;30214;52.246;14.408;2023-05-10T03:55:36;9.50;99.90
44509;DHT22;30214;52.246;14.408;2023-05-10T03:58:03;9.50;99.90
44509;DHT22;30214;52.246;14.408;2023-05-10T04:00:32;9.60;99.90
44509;DHT22;30214;52.246;14.408;2023-05-10T04:02:59;9.70;99.90
44509;DHT22;30214;52.246;14.408;2023-05-10T04:05:27;9.80;99.90
44509;DHT22;30214;52.246;14.408;2023-05-10T04:07:54;10.00;99.90
44509;DHT22;30214;52.246;14.408;2023-05-10T04:10:22;10.20;99.90
44509;DHT22;30214;52.246;14.408;2023-05-10T04:12:49;10.50;99.90
44509;DHT22;30214;52.246;14.408;2023-05-10T04:15:17;10.70;99.90
44509;DHT22;30214;52.246;14.408;2023-05-10T04:17:44;10.70;99.90
44509;DHT22;30214;52.246;14.408;2023-05-10T04:20:12;10.70;99.90
44509;DHT22;30214;52.246;14.408;2023-05-10T04:22:39;11.00;99.90
44509;DHT22;30214;52.246;14.408;2023-05-10T04:25:07;10.80;99.90
44509;DHT22;30214;52.246;14.408;2023-05-10T04:27:36;10.80;99.90
44509;DHT22;30214;52.246;14.408;2023-05-10T04:30:04;10.90;99.90
44509;DHT22;30214;52.246;14.408;2023-05-10T04:32:32;11.10;99.90
44509;DHT22;30214;52.246;14.408;2023-05-10T04:34:59;11.10;99.70
44509;DHT22;30214;52.246;14.408;2023-05-10T04:37:29;11.00;99.90
44509;DHT22;30214;52.246;14.408;2023-05-10T04:39:56;11.00;99.90
44509;DHT22;30214;52.246;14.408;2023-05-10T04:42:23;11.00;99.90
44509;DHT22;30214;52.246;14.408;2023-05-10T04:44:51;11.30;99.90
44509;DHT22;30214;52.246;14.408;2023-05-10T04:47:18;11.50;99.30
44509;DHT22;30214;52.246;14.408;2023-05-10T04:49:45;11.60;99.10
44509;DHT22;30214;52.246;14.408;2023-05-10T04:52:12;11.60;99.00
44509;DHT22;30214;52.246;14.408;2023-05-10T04:54:40;11.70;98.80
44509;DHT22;30214;52.246;14.408;2023-05-10T04:57:10;11.60;98.90
44509;DHT22;30214;52.246;14.408;2023-05-10T04:59:37;11.70;99.00
44509;DHT22;30214;52.246;14.408;2023-05-10T05:02:07;11.70;98.90
44509;DHT22;30214;52.246;14.408;2023-05-10T05:04:34;11.90;98.60
44509;DHT22;30214;52.246;14.408;2023-05-10T05:07:01;11.90;98.70
44509;DHT22;30214;52.246;14.408;2023-05-10T05:09:29;12.10;98.80
44509;DHT22;30214;52.246;14.408;2023-05-10T05:11:57;12.30;98.20
44509;DHT22;30214;52.246;14.408;2023-05-10T05:14:25;12.40;97.40
44509;DHT22;30214;52.246;14.408;2023-05-10T05:16:52;12.50;97.20
44509;DHT22;30214;52.246;14.408;2023-05-10T05:19:20;12.70;97.50
44509;DHT22;30214;52.246;14.408;2023-05-10T05:21:48;12.70;96.70
44509;DHT22;30214;52.246;14.408;2023-05-10T05:24:15;12.50;96.90
44509;DHT22;30214;52.246;14.408;2023-05-10T05:26:42;12.60;97.20
44509;DHT22;30214;52.246;14.408;2023-05-10T05:29:09;13.00;97.10
44509;DHT22;30214;52.246;14.408;2023-05-10T05:31:36;13.20;96.40
44509;DHT22;30214;52.246;14.408;2023-05-10T05:34:03;13.30;96.00
44509;DHT22;30214;52.246;14.408;2023-05-10T05:36:35;13.50;96.50
44509;DHT22;30214;52.246;14.408;2023-05-10T05:39:03;13.70;94.90
44509;DHT22;30214;52.246;14.408;2023-05-10T05:41:30;13.30;95.50
44509;DHT22;30214;52.246;14.408;2023-05-10T05:43:57;13.50;95.60
44509;DHT22;30214;52.246;14.408;2023-05-10T05:46:25;13.50;94.60
44509;DHT22;30214;52.246;14.408;2023-05-10T05:48:52;13.70;95.80
44509;DHT22;30214;52.246;14.408;2023-05-10T05:51:19;13.90;95.60
44509;DHT22;30214;52.246;14.408;2023-05-10T05:53:47;14.10;94.40
44509;DHT22;30214;52.246;14.408;2023-05-10T05:56:14;13.60;95.10
44509;DHT22;30214;52.246;14.408;2023-05-10T05:58:43;13.80;95.60
44509;DHT22;30214;52.246;14.408;2023-05-10T06:01:10;14.10;95.00
44509;DHT22;30214;52.246;14.408;2023-05-10T06:03:37;14.30;93.30
44509;DHT22;30214;52.246;14.408;2023-05-10T06:06:04;14.40;94.50
44509;DHT22;30214;52.246;14.408;2023-05-10T06:08:32;14.50;93.20
44509;DHT22;30214;52.246;14.408;2023-05-10T06:11:00;14.30;93.60
44509;DHT22;30214;52.246;14.408;2023-05-10T06:13:29;14.60;93.30
44509;DHT22;30214;52.246;14.408;2023-05-10T06:15:57;15.00;92.90
44509;DHT22;30214;52.246;14.408;2023-05-10T06:18:24;15.10;91.60
44509;DHT22;30214;52.246;14.408;2023-05-10T06:20:51;15.20;93.60
44509;DHT22;30214;52.246;14.408;2023-05-10T06:23:19;15.10;91.60
44509;DHT22;30214;52.246;14.408;2023-05-10T06:25:46;15.10;92.10
44509;DHT22;30214;52.246;14.408;2023-05-10T06:28:14;15.30;90.50
44509;DHT22;30214;52.246;14.408;2023-05-10T06:30:41;15.10;90.60
44509;DHT22;30214;52.246;14.408;2023-05-10T06:33:08;15.10;91.80
44509;DHT22;30214;52.246;14.408;2023-05-10T06:35:35;15.40;92.20
44509;DHT22;30214;52.246;14.408;2023-05-10T06:38:02;15.70;90.80
44509;DHT22;30214;52.246;14.408;2023-05-10T06:40:30;15.70;90.40
44509;DHT22;30214;52.246;14.408;2023-05-10T06:42:57;15.70;90.70
44509;DHT22;30214;52.246;14.408;2023-05-10T06:45:25;15.60;90.90
44509;DHT22;30214;52.246;14.408;2023-05-10T06:47:52;16.00;90.70
44509;DHT22;30214;52.246;14.408;2023-05-10T06:50:20;16.30;88.00
44509;DHT22;30214;52.246;14.408;2023-05-10T06:52:47;16.60;90.00
44509;DHT22;30214;52.246;14.408;2023-05-10T06:55:14;16.30;85.20
44509;DHT22;30214;52.246;14.408;2023-05-10T06:57:41;16.50;88.60
44509;DHT22;30214;52.246;14.408;2023-05-10T07:00:09;16.20;85.20
44509;DHT22;30214;52.246;14.408;2023-05-10T07:02:37;16.10;86.90
44509;DHT22;30214;52.246;14.408;2023-05-10T07:05:05;16.10;86.80
44509;DHT22;30214;52.246;14.408;2023-05-10T07:07:32;16.40;86.70
44509;DHT22;30214;52.246;14.408;2023-05-10T07:09:59;16.60;85.90
44509;DHT22;30214;52.246;14.408;2023-05-10T07:12:26;16.60;83.70
44509;DHT22;30214;52.246;14.408;2023-05-10T07:14:53;16.60;86.60
44509;DHT22;30214;52.246;14.408;2023-05-10T07:17:21;16.60;81.60
44509;DHT22;30214;52.246;14.408;2023-05-10T07:19:49;16.70;87.40
44509;DHT22;30214;52.246;14.408;2023-05-10T07:22:16;16.90;82.30
44509;DHT22;30214;52.246;14.408;2023-05-10T07:24:44;17.10;88.20
44509;DHT22;30214;52.246;14.408;2023-05-10T07:27:11;17.20;83.90
44509;DHT22;30214;52.246;14.408;2023-05-10T07:29:38;17.20;80.50
44509;DHT22;30214;52.246;14.408;2023-05-10T07:32:06;17.10;80.70
44509;DHT22;30214;52.246;14.408;2023-05-10T07:34:33;17.20;82.00
44509;DHT22;30214;52.246;14.408;2023-05-10T07:37:01;17.00;82.80
44509;DHT22;30214;52.246;14.408;2023-05-10T07:39:28;17.00;82.60
44509;DHT22;30214;52.246;14.408;2023-05-10T07:41:55;17.40;80.00
44509;DHT22;30214;52.246;14.408;2023-05-10T07:44:23;17.70;81.30
44509;DHT22;30214;52.246;14.408;2023-05-10T07:46:50;17.90;78.80
44509;DHT22;30214;52.246;14.408;2023-05-10T07:49:18;18.00;75.20
44509;DHT22;30214;52.246;14.408;2023-05-10T07:51:45;18.00;72.90
44509;DHT22;30214;52.246;14.408;2023-05-10T07:54:14;18.30;75.30
44509;DHT22;30214;52.246;14.408;2023-05-10T07:56:41;18.30;72.40
44509;DHT22;30214;52.246;14.408;2023-05-10T07:59:15;18.40;73.80
44509;DHT22;30214;52.246;14.408;2023-05-10T08:01:43;18.20;77.10
44509;DHT22;30214;52.246;14.408;2023-05-10T08:04:11;18.50;73.00
44509;DHT22;30214;52.246;14.408;2023-05-10T08:06:39;18.70;71.10
44509;DHT22;30214;52.246;14.408;2023-05-10T08:09:07;18.70;68.80
44509;DHT22;30214;52.246;14.408;2023-05-10T08:11:35;18.50;71.50
44509;DHT22;30214;52.246;14.408;2023-05-10T08:14:02;18.30;71.90
44509;DHT22;30214;52.246;14.408;2023-05-10T08:16:30;18.30;70.40
44509;DHT22;30214;52.246;14.408;2023-05-10T08:18:58;17.90;71.40
44509;DHT22;30214;52.246;14.408;2023-05-10T08:21:25;18.10;71.40
44509;DHT22;30214;52.246;14.408;2023-05-10T08:23:53;18.70;74.60
44509;DHT22;30214;52.246;14.408;2023-05-10T08:26:20;18.50;69.20
44509;DHT22;30214;52.246;14.408;2023-05-10T08:28:49;18.40;69.10
44509;DHT22;30214;52.246;14.408;2023-05-10T08:31:16;18.60;68.60
44509;DHT22;30214;52.246;14.408;2023-05-10T08:33:43;18.70;71.80
44509;DHT22;30214;52.246;14.408;2023-05-10T08:36:10;19.00;66.80
44509;DHT22;30214;52.246;14.408;2023-05-10T08:38:39;19.30;64.60
44509;DHT22;30214;52.246;14.408;2023-05-10T08:41:06;19.40;63.40
44509;DHT22;30214;52.246;14.408;2023-05-10T08:43:36;19.70;62.00
44509;DHT22;30214;52.246;14.408;2023-05-10T08:46:07;19.50;66.10
44509;DHT22;30214;52.246;14.408;2023-05-10T08:48:39;19.60;65.40
44509;DHT22;30214;52.246;14.408;2023-05-10T08:51:09;19.50;65.80
44509;DHT22;30214;52.246;14.408;2023-05-10T08:53:40;19.70;64.00
44509;DHT22;30214;52.246;14.408;2023-05-10T08:56:07;19.40;63.60
44509;DHT22;30214;52.246;14.408;2023-05-10T08:58:34;19.30;64.50
44509;DHT22;30214;52.246;14.408;2023-05-10T09:01:05;19.20;62.10
44509;DHT22;30214;52.246;14.408;2023-05-10T09:03:32;19.30;64.40
44509;DHT22;30214;52.246;14.408;2023-05-10T09:06:00;19.60;65.80
44509;DHT22;30214;52.246;14.408;2023-05-10T09:08:27;19.90;62.50
44509;DHT22;30214;52.246;14.408;2023-05-10T09:10:55;20.00;60.70
44509;DHT22;30214;52.246;14.408;2023-05-10T09:13:23;20.20;60.10
44509;DHT22;30214;52.246;14.408;2023-05-10T09:15:51;20.30;57.90
44509;DHT22;30214;52.246;14.408;2023-05-10T09:18:19;20.40;58.70
44509;DHT22;30214;52.246;14.408;2023-05-10T09:20:48;20.40;58.50
44509;DHT22;30214;52.246;14.408;2023-05-10T09:23:15;20.30;57.80
44509;DHT22;30214;52.246;14.408;2023-05-10T09:25:42;20.50;56.90
44509;DHT22;30214;52.246;14.408;2023-05-10T09:28:11;20.80;55.70
44509;DHT22;30214;52.246;14.408;2023-05-10T09:30:38;20.70;55.80
44509;DHT22;30214;52.246;14.408;2023-05-10T09:33:05;20.90;56.40
44509;DHT22;30214;52.246;14.408;2023-05-10T09:35:34;20.90;56.50
44509;DHT22;30214;52.246;14.408;2023-05-10T09:38:03;21.10;57.80
44509;DHT22;30214;52.246;14.408;2023-05-10T09:40:32;21.00;57.40
44509;DHT22;30214;52.246;14.408;2023-05-10T09:43:01;20.90;57.20
44509;DHT22;30214;52.246;14.408;2023-05-10T09:45:30;20.90;57.20
44509;DHT22;30214;52.246;14.408;2023-05-10T09:47:59;20.90;56.70
44509;DHT22;30214;52.246;14.408;2023-05-10T09:50:27;20.90;58.80
44509;DHT22;30214;52.246;14.408;2023-05-10T09:52:57;21.00;54.60
44509;DHT22;30214;52.246;14.408;2023-05-10T09:55:38;21.10;53.30
44509;DHT22;30214;52.246;14.408;2023-05-10T09:58:06;21.00;53.60
44509;DHT22;30214;52.246;14.408;2023-05-10T10:00:36;21.10;55.10
44509;DHT22;30214;52.246;14.408;2023-05-10T10:03:05;21.20;54.00
44509;DHT22;30214;52.246;14.408;2023-05-10T10:05:40;21.40;55.20
44509;DHT22;30214;52.246;14.408;2023-05-10T10:08:10;21.30;55.50
44509;DHT22;30214;52.246;14.408;2023-05-10T10:10:38;21.60;54.70
44509;DHT22;30214;52.246;14.408;2023-05-10T10:13:05;21.90;53.50
44509;DHT22;30214;52.246;14.408;2023-05-10T10:15:36;22.00;53.20
44509;DHT22;30214;52.246;14.408;2023-05-10T10:18:05;21.90;52.00
44509;DHT22;30214;52.246;14.408;2023-05-10T10:20:32;21.50;53.30
44509;DHT22;30214;52.246;14.408;2023-05-10T10:22:59;21.50;53.30
44509;DHT22;30214;52.246;14.408;2023-05-10T10:25:27;21.70;52.00
44509;DHT22;30214;52.246;14.408;2023-05-10T10:28:05;21.80;53.40
44509;DHT22;30214;52.246;14.408;2023-05-10T10:30:41;21.70;54.40
44509;DHT22;30214;52.246;14.408;2023-05-10T10:33:27;21.80;53.20
44509;DHT22;30214;52.246;14.408;2023-05-10T10:36:02;22.00;54.40
44509;DHT22;30214;52.246;14.408;2023-05-10T10:38:37;21.90;52.10
44509;DHT22;30214;52.246;14.408;2023-05-10T10:41:27;21.50;51.50
44509;DHT22;30214;52.246;14.408;2023-05-10T10:47:03;21.20;52.40
44509;DHT22;30214;52.246;14.408;2023-05-10T10:49:48;21.10;52.20
44509;DHT22;30214;52.246;14.408;2023-05-10T10:52:25;21.10;51.00
44509;DHT22;30214;52.246;14.408;2023-05-10T10:55:00;21.10;52.80
44509;DHT22;30214;52.246;14.408;2023-05-10T10:57:33;21.60;54.10
44509;DHT22;30214;52.246;14.408;2023-05-10T11:00:28;21.60;50.70
44509;DHT22;30214;52.246;14.408;2023-05-10T11:02:58;21.50;49.90
44509;DHT22;30214;52.246;14.408;2023-05-10T11:05:38;21.50;50.00
44509;DHT22;30214;52.246;14.408;2023-05-10T11:08:18;21.40;52.50
44509;DHT22;30214;52.246;14.408;2023-05-10T11:10:52;21.10;52.00
44509;DHT22;30214;52.246;14.408;2023-05-10T11:13:30;21.20;51.00
44509;DHT22;30214;52.246;14.408;2023-05-10T11:15:59;21.40;53.70
44509;DHT22;30214;52.246;14.408;2023-05-10T11:18:37;21.50;50.30
44509;DHT22;30214;52.246;14.408;2023-05-10T11:21:04;21.70;50.70
44509;DHT22;30214;52.246;14.408;2023-05-10T11:23:32;21.90;48.80
44509;DHT22;30214;52.246;14.408;2023-05-10T11:26:14;22.10;51.80
44509;DHT22;30214;52.246;14.408;2023-05-10T11:28:43;21.80;50.80
44509;DHT22;30214;52.246;14.408;2023-05-10T11:31:10;22.10;49.50
44509;DHT22;30214;52.246;14.408;2023-05-10T11:33:42;22.10;49.20
44509;DHT22;30214;52.246;14.408;2023-05-10T11:36:11;22.20;50.60
44509;DHT22;30214;52.246;14.408;2023-05-10T11:38:38;22.30;53.60
44509;DHT22;30214;52.246;14.408;2023-05-10T11:41:08;22.30;49.20
44509;DHT22;30214;52.246;14.408;2023-05-10T11:43:37;22.20;52.70
44509;DHT22;30214;52.246;14.408;2023-05-10T11:46:11;22.40;49.80
44509;DHT22;30214;52.246;14.408;2023-05-10T11:48:40;22.40;49.30
44509;DHT22;30214;52.246;14.408;2023-05-10T11:51:08;22.60;52.20
44509;DHT22;30214;52.246;14.408;2023-05-10T11:53:36;22.50;51.20
44509;DHT22;30214;52.246;14.408;2023-05-10T11:56:04;22.10;51.40
44509;DHT22;30214;52.246;14.408;2023-05-10T11:58:32;21.90;51.40
44509;DHT22;30214;52.246;14.408;2023-05-10T12:01:00;21.80;52.40
44509;DHT22;30214;52.246;14.408;2023-05-10T12:03:29;21.90;53.50
44509;DHT22;30214;52.246;14.408;2023-05-10T12:05:57;22.00;52.40
44509;DHT22;30214;52.246;14.408;2023-05-10T12:08:26;22.20;51.10
44509;DHT22;30214;52.246;14.408;2023-05-10T12:11:04;21.90;54.00
44509;DHT22;30214;52.246;14.408;2023-05-10T12:13:32;22.00;52.60
44509;DHT22;30214;52.246;14.408;2023-05-10T12:16:12;22.10;54.70
44509;DHT22;30214;52.246;14.408;2023-05-10T12:18:42;22.10;52.40
44509;DHT22;30214;52.246;14.408;2023-05-10T12:21:10;22.30;51.90
44509;DHT22;30214;52.246;14.408;2023-05-10T12:23:38;22.00;52.90
44509;DHT22;30214;52.246;14.408;2023-05-10T12:26:06;22.10;51.50
44509;DHT22;30214;52.246;14.408;2023-05-10T12:28:33;22.20;54.00
44509;DHT22;30214;52.246;14.408;2023-05-10T12:31:01;22.50;50.90
44509;DHT22;30214;52.246;14.408;2023-05-10T12:33:35;22.50;52.90
44509;DHT22;30214;52.246;14.408;2023-05-10T12:36:06;22.30;51.70
44509;DHT22;30214;52.246;14.408;2023-05-10T12:38:35;22.40;52.00
44509;DHT22;30214;52.246;14.408;2023-05-10T12:41:05;22.40;51.60
44509;DHT22;30214;52.246;14.408;2023-05-10T12:43:34;22.30;54.40
44509;DHT22;30214;52.246;14.408;2023-05-10T12:46:06;22.40;51.70
44509;DHT22;30214;52.246;14.408;2023-05-10T12:48:34;22.30;51.60
44509;DHT22;30214;52.246;14.408;2023-05-10T12:51:01;22.20;51.40
44509;DHT22;30214;52.246;14.408;2023-05-10T12:53:31;22.50;52.50
44509;DHT22;30214;52.246;14.408;2023-05-10T12:55:58;22.50;50.10
44509;DHT22;30214;52.246;14.408;2023-05-10T12:58:25;22.80;50.90
44509;DHT22;30214;52.246;14.408;2023-05-10T13:00:52;22.80;50.50
44509;DHT22;30214;52.246;14.408;2023-05-10T13:03:19;22.70;51.00
44509;DHT22;30214;52.246;14.408;2023-05-10T13:05:46;22.80;52.60
44509;DHT22;30214;52.246;14.408;2023-05-10T13:08:13;22.90;52.70
44509;DHT22;30214;52.246;14.408;2023-05-10T13:10:42;22.60;50.00
44509;DHT22;30214;52.246;14.408;2023-05-10T13:13:09;22.60;50.60
44509;DHT22;30214;52.246;14.408;2023-05-10T13:15:36;22.60;50.30
44509;DHT22;30214;52.246;14.408;2023-05-10T13:18:03;22.60;51.70
44509;DHT22;30214;52.246;14.408;2023-05-10T13:20:31;22.80;50.40
44509;DHT22;30214;52.246;14.408;2023-05-10T13:23:01;22.90;50.80
44509;DHT22;30214;52.246;14.408;2023-05-10T13:25:35;22.90;50.60
44509;DHT22;30214;52.246;14.408;2023-05-10T13:28:09;22.90;49.10
44509;DHT22;30214;52.246;14.408;2023-05-10T13:30:40;23.10;49.00
44509;DHT22;30214;52.246;14.408;2023-05-10T13:33:13;23.20;48.30
44509;DHT22;30214;52.246;14.408;2023-05-10T13:35:41;23.30;50.70
44509;DHT22;30214;52.246;14.408;2023-05-10T13:38:09;23.10;49.00
44509;DHT22;30214;52.246;14.408;2023-05-10T13:40:36;22.80;49.70
44509;DHT22;30214;52.246;14.408;2023-05-10T13:43:03;22.50;51.10
44509;DHT22;30214;52.246;14.408;2023-05-10T13:45:32;22.40;52.30
44509;DHT22;30214;52.246;14.408;2023-05-10T13:47:59;22.30;52.30
44509;DHT22;30214;52.246;14.408;2023-05-10T13:50:27;22.40;51.90
44509;DHT22;30214;52.246;14.408;2023-05-10T13:52:54;22.50;50.70
44509;DHT22;30214;52.246;14.408;2023-05-10T13:55:22;22.40;53.00
44509;DHT22;30214;52.246;14.408;2023-05-10T13:57:49;22.50;51.70
44509;DHT22;30214;52.246;14.408;2023-05-10T14:00:16;22.60;51.00
44509;DHT22;30214;52.246;14.408;2023-05-10T14:02:45;22.60;50.40
44509;DHT22;30214;52.246;14.408;2023-05-10T14:05:13;22.70;51.20
44509;DHT22;30214;52.246;14.408;2023-05-10T14:07:41;22.80;50.70
44509;DHT22;30214;52.246;14.408;2023-05-10T14:10:09;22.90;51.40
44509;DHT22;30214;52.246;14.408;2023-05-10T14:12:37;23.00;49.20
44509;DHT22;30214;52.246;14.408;2023-05-10T14:15:07;23.20;49.90
44509;DHT22;30214;52.246;14.408;2023-05-10T14:17:38;23.20;49.70
44509;DHT22;30214;52.246;14.408;2023-05-10T14:20:08;23.30;49.40
44509;DHT22;30214;52.246;14.408;2023-05-10T14:22:37;23.00;50.70
44509;DHT22;30214;52.246;14.408;2023-05-10T14:25:08;22.90;51.50
44509;DHT22;30214;52.246;14.408;2023-05-10T14:27:37;22.80;52.00
44509;DHT22;30214;52.246;14.408;2023-05-10T14:30:06;22.60;51.60
44509;DHT22;30214;52.246;14.408;2023-05-10T14:32:35;22.60;51.70
44509;DHT22;30214;52.246;14.408;2023-05-10T14:35:07;22.50;51.10
44509;DHT22;30214;52.246;14.408;2023-05-10T14:37:36;22.40;52.20
44509;DHT22;30214;52.246;14.408;2023-05-10T14:40:05;22.00;51.30
44509;DHT22;30214;52.246;14.408;2023-05-10T14:42:33;22.00;51.40
44509;DHT22;30214;52.246;14.408;2023-05-10T14:45:00;22.20;52.90
44509;DHT22;30214;52.246;14.408;2023-05-10T14:47:27;22.60;51.30
44509;DHT22;30214;52.246;14.408;2023-05-10T14:49:57;22.70;52.30
44509;DHT22;30214;52.246;14.408;2023-05-10T14:52:27;22.70;53.10
44509;DHT22;30214;52.246;14.408;2023-05-10T14:54:54;22.70;51.60
44509;DHT22;30214;52.246;14.408;2023-05-10T14:57:21;22.70;51.40
44509;DHT22;30214;52.246;14.408;2023-05-10T14:59:48;22.90;50.10
44509;DHT22;30214;52.246;14.408;2023-05-10T15:02:15;22.80;50.30
44509;DHT22;30214;52.246;14.408;2023-05-10T15:04:43;22.70;50.90
44509;DHT22;30214;52.246;14.408;2023-05-10T15:07:11;22.60;50.90
44509;DHT22;30214;52.246;14.408;2023-05-10T15:09:42;22.70;53.70
44509;DHT22;30214;52.246;14.408;2023-05-10T15:12:09;22.50;52.00
44509;DHT22;30214;52.246;14.408;2023-05-10T15:14:38;22.30;52.70
44509;DHT22;30214;52.246;14.408;2023-05-10T15:17:09;22.30;52.20
44509;DHT22;30214;52.246;14.408;2023-05-10T15:19:37;22.30;52.20
44509;DHT22;30214;52.246;14.408;2023-05-10T15:22:05;22.30;53.20
44509;DHT22;30214;52.246;14.408;2023-05-10T15:24:33;22.20;50.70
44509;DHT22;30214;52.246;14.408;2023-05-10T15:27:04;22.00;52.30
44509;DHT22;30214;52.246;14.408;2023-05-10T15:29:32;21.80;52.40
44509;DHT22;30214;52.246;14.408;2023-05-10T15:32:01;21.80;52.80
44509;DHT22;30214;52.246;14.408;2023-05-10T15:34:29;21.70;52.90
44509;DHT22;30214;52.246;14.408;2023-05-10T15:36:57;21.70;53.40
44509;DHT22;30214;52.246;14.408;2023-05-10T15:39:24;21.80;53.70